Station info - map view · info · telemetry · weather · raw · status · beacons · messages · bulletins · browse · moving · my account
Callsign, ship name or locator: Clear       
It is possible to search using wildcards (*?) after a prefix. Example: OH*
APRS station KD9ADE-9 - show graphs
Map loading...
Mic-E message: Off duty
Location: 40°17.61' N 85°33.51' W - locator EN70FH20XK - show map - static map
9.7 miles Southeast bearing 150° from Fairmount, Grant County, Indiana, United States [?]
13.0 miles South bearing 195° from Upland, Grant County, Indiana, United States
48.2 miles Northeast bearing 41° from Indianapolis, Marion County, Indiana, United States
62.0 miles South bearing 201° from Fort Wayne, Allen County, Indiana, United States
Last position: 2018-04-20 17:37:44 EDT (5d 23h41m ago)
2018-04-20 17:37:44 EDT local time at Fairmount, United States [?]
Altitude: 873 ft
Course: 178°
Speed: 74 MPH
Device: Yaesu: FT1D (ht)
Last path: KD9ADE-9>TPQW6Q via WIDE1-1,WIDE2-1,qAR,W9SMJ-1 (good)
Positions stored: 10976
Stations near current position of KD9ADE-9 - show more
callsign distance last heard - EDT      callsign distance last heard - EDT
KB9PMA-99.0 miles 152°2018-04-25 06:35:17 EW30909.8 miles 91°2018-04-26 17:05:59
EW576510.1 miles 130°2018-04-24 13:08:18 KD9KFG-1110.7 miles 215°2018-04-21 12:41:08
KD9KFF-1110.9 miles 68°2018-04-21 14:53:39 KB9VE-211.2 miles 200°2018-04-26 17:09:02
W9AMT-311.4 miles 152°2018-04-26 17:00:28 441.287511.4 miles 152°2018-04-26 17:15:01
KD9HYO11.8 miles 115°2018-04-26 07:30:51 KB9TTX12.1 miles 6°2018-04-03 20:04:35
KE9V12.1 miles 127°2018-04-24 21:35:17 KB9PMA12.3 miles 78°2018-04-25 15:09:50
N9PKL13.4 miles 344°2018-04-25 06:32:54 N9PKK13.4 miles 344°2018-04-26 17:00:36
KB9VE13.9 miles 208°2018-04-26 17:18:43 KV9W14.3 miles 223°2018-04-26 17:16:49
N9IKF14.7 miles 42°2018-04-25 15:00:20 N9DEZ-115.7 miles 213°2018-04-19 12:05:26
K9TZJ16.3 miles 220°2018-04-24 15:49:24 FW208216.9 miles 133°2018-04-26 17:10:45
Stations which heard KD9ADE-9 directly on radio –
callsign pkts first heard - EDT last heard longest (tx => rx) longest at - EDT
K9APR-5 13 2018-04-07 07:06:07 2018-04-07 23:02:20 EN70JA > EM79LV 13.3 miles 139° 2018-04-07 23:02:20
W8BLV 21 2018-04-07 08:23:10 2018-04-07 09:23:37 EM79RI > EM79TM 14.2 miles 33° 2018-04-07 08:57:24
WC8EMA 13 2018-04-07 08:37:15 2018-04-07 09:23:40 EM79RK > EM79WL 20.4 miles 86° 2018-04-07 08:37:15
K8GPS-4 26 2018-04-07 15:54:47 2018-04-07 17:29:38 EN80LE > EM89OU 24.5 miles 151° 2018-04-07 17:29:38
W8BAP-1 21 2018-04-07 14:16:13 2018-04-07 15:38:49 EM89MM > EM89MF 19.4 miles 188° 2018-04-07 15:38:49
NR8I-3 47 2018-04-07 17:55:56 2018-04-07 20:06:11 EN80EM > EN80KN 25.4 miles 83° 2018-04-07 20:06:11
N8OZB 7 2018-04-07 20:30:21 2018-04-07 20:50:40 EN80AG > EN80BJ 10.7 miles 40° 2018-04-07 20:50:40
N8WCT-1 13 2018-04-07 16:14:56 2018-04-07 17:17:28 EM89LU > EM89LX 8.6 miles 354° 2018-04-07 16:14:56
W8MRG-3 3 2018-04-07 09:27:39 2018-04-07 09:35:42 EM79SH > EM79SD 12.6 miles 187° 2018-04-07 09:27:39
W9ICE-10 12 2018-04-07 23:32:42 2018-04-20 11:30:03 EN70HD > EM69VV 47.7 miles 249° 2018-04-07 23:32:42
W8MRG-5 1 2018-04-07 09:31:53 2018-04-07 09:31:53 EM79SG > EM79TF 5.4 miles 130° 2018-04-07 09:31:53
W8VFR-1 25 2018-04-07 07:44:25 2018-04-07 22:22:03 EM79SI > EM79PO 20.0 miles 331° 2018-04-07 09:19:36
W8VFR-2 3 2018-04-07 07:38:18 2018-04-07 22:22:02 EM79OU > EM79OU 2.2 miles 73° 2018-04-07 07:38:18
W8VFR-9 11 2018-04-07 07:44:23 2018-04-07 22:15:54 EM79SI > EM79QR 27.6 miles 344° 2018-04-07 09:23:36
W8VFR-5 2 2018-04-07 08:10:53 2018-04-07 08:17:01 EM79QM > EM79OM 8.1 miles 273° 2018-04-07 08:17:01
W8VFR-10 8 2018-04-07 07:40:19 2018-04-07 22:22:04 EM79QQ > EM79PS 8.9 miles 321° 2018-04-07 07:58:50
N8VKX-10 1 2018-04-07 22:11:49 2018-04-07 22:11:49 EM79QU > EM79RU 4.2 miles 100° 2018-04-07 22:11:49
W8FTV-1 3 2018-04-07 20:26:12 2018-04-07 20:40:32 EN80BI > EN80DI 9.9 miles 83° 2018-04-07 20:40:32
KC9MWQ-1 53 2018-04-03 06:53:53 2018-04-19 17:54:34 EN70FG > EN70EO 23.1 miles 347° 2018-04-04 06:42:10
KS9N-10 4 2018-04-07 07:28:12 2018-04-07 22:38:09 EM79LV > EM79NT 8.7 miles 119° 2018-04-07 22:38:09
W8VFR-11 9 2018-04-07 07:20:08 2018-04-07 22:40:08 EM79LV > EM79NO 22.9 miles 156° 2018-04-07 07:20:08
KB8UVN-11 1 2018-04-07 17:23:30 2018-04-07 17:23:30 EN80LD > EN80PD 15.8 miles 89° 2018-04-07 17:23:30
WB9CNE 6 2018-04-20 06:47:09 2018-04-20 11:30:00 EN70EB > EM79CT 18.9 miles 208° 2018-04-20 06:47:09
K3HTK-1 3 2018-04-20 06:57:20 2018-04-20 07:03:35 EM79BX > EN60XA 7.6 miles 282° 2018-04-20 06:57:20
W9SMJ-1 8 2018-04-03 18:00:14 2018-04-20 17:37:44 EN70FG > EN60XJ 28.5 miles 289° 2018-04-19 06:45:42
W8VFR-8 18 2018-04-07 07:44:27 2018-04-07 22:11:52 EN70TF > EM79QW 27.4 miles 214° 2018-04-07 21:20:56
KC8HQX-3 4 2018-04-07 09:49:45 2018-04-07 09:55:47 EM79RC > EM79RC 2.4 miles 275° 2018-04-07 09:55:47
N7LNE 11 2018-04-07 19:52:07 2018-04-07 20:24:12 EN80FM > EN80DJ 12.6 miles 225° 2018-04-07 19:52:07
K8EMA-4 11 2018-04-07 20:52:39 2018-04-07 21:14:53 EN80AG > EN70WG 8.9 miles 266° 2018-04-07 20:52:39
KE0JMK-9 1 2018-04-07 16:45:16 2018-04-07 16:45:16 EM89LX > EM89LX 0.7 miles 276° 2018-04-07 16:45:16
NF9K-10 2 2018-04-20 07:05:31 2018-04-20 11:24:16 EM69XW > EN60XB 7.1 miles 350° 2018-04-20 07:05:31
WC8VOA 1 2018-04-07 09:27:39 2018-04-07 09:27:39 EM79SH > EM79TI 4.5 miles 61° 2018-04-07 09:27:39
K8QIK-11 1 2018-04-07 16:41:14 2018-04-07 16:41:14 EM89LX > EM89RW 22.8 miles 95° 2018-04-07 16:41:14
KB9PMA-1 6 2018-04-03 07:07:58 2018-04-04 16:56:22 EN70EN > EN70FN 4.5 miles 97° 2018-04-04 16:52:21
KD8EVI-10 3 2018-04-07 21:10:52 2018-04-07 21:27:04 EN70TF > EN70VD 11.2 miles 120° 2018-04-07 21:27:04

Only position packets which were originated by the station are shown here. The range statistics show some extra long hops, because some digipeaters do not correctly add themselves to the digipeater path. Please check the raw packets.
About this site
This page shows real-time information collected from the Automatic Position Reporting System Internet network (APRS-IS). APRS is used by amateur (ham) radio operators to transmit real-time position information, weather data, telemetry and messages over the radio. A vehicle equipped with a GPS receiver, a VHF transmitter or HF transceiver and a small computer device called a tracker transmits it's location, speed and course in a small data packet, which is then received by a nearby iGate receiving site which forwards the packet on the Internet. Systems connected to the Internet can send information on the APRS-IS without a radio transmitter, or collect and display information transmitted anywhere in the world.
FAQ · Blog · Discussion group · Linking to aprs.fi · AIS sites · Service status · Database statistics · Advertising on aprs.fi · Technical details · API · Change log · Planned changes · Credits and thanks · Terms Of Service · iPhone/iPad APRS